Latest Weather Observations for Lochington

IDQ60801

Issued at 4:02 pm EST Wednesday 22 February 2017 (issued every 30 minutes, with the page automatically refreshed every 10 minutes)

About weather observations | Map of weather stations | Latest weather observations for QLD | Other Formats
Station Details ID: 035139 Name: LOCHINGTON Lat: -23.94 Lon: 147.53 Height: 267.19 m
Data from the previous 72 hours. | See also: Recent months at Lochington
Date/Time
EST
Temp
°C
App
Temp
°C
Dew
Point
°C
Rel
Hum
%
Delta-T
°C
Wind Press
QNH
hPa
Press
MSL
hPa
Rain since
9am
mm
Dir  Spd
km/h
Gust
km/h
Spd
kts
Gust
kts
22/03:30pm 33.5 34.0 15.0 32 11.6 NNE 6 17 3 9 1012.9 1011.1 0.0
22/03:00pm 33.8 33.6 14.8 32 11.9 E 9 22 5 12 1013.1 1011.3 0.0
22/02:30pm 35.0 35.6 15.3 30 12.4 ESE 6 11 3 6 1013.5 1011.7 0.0
22/02:00pm 34.5 35.3 16.4 34 11.6 ENE 7 22 4 12 1013.9 1012.1 0.0
22/01:30pm 32.5 32.9 16.3 37 10.3 NE 9 15 5 8 1014.3 1012.5 0.0
22/01:00pm 33.0 34.0 16.8 38 10.4 ENE 7 20 4 11 1014.8 1013.1 0.0
22/12:30pm 32.3 32.8 17.4 41 9.6 ESE 11 24 6 13 1015.2 1013.5 0.0
22/12:00pm 32.2 33.3 18.8 45 8.8 E 11 22 6 12 1015.5 1013.8 0.0
22/11:30am 31.8 32.2 19.1 47 8.4 E 15 24 8 13 1016.0 1014.3 0.0
22/11:00am 31.8 32.2 19.8 49 8.0 ENE 17 24 9 13 1016.5 1014.7 0.0
22/10:30am 29.9 30.4 19.3 53 7.0 ENE 15 28 8 15 1016.8 1015.0 0.0
22/10:00am 28.7 28.8 19.1 56 6.3 ENE 17 24 9 13 1017.1 1015.3 0.0
22/09:30am 28.4 29.6 19.9 60 5.6 ENE 13 22 7 12 1017.3 1015.5 0.0
22/09:00am 28.0 29.4 20.3 63 5.1 E 13 22 7 12 1017.4 1015.6 0.0
22/08:30am 27.5 28.4 20.1 64 4.9 E 15 20 8 11 1017.3 1015.5 0.0
22/08:00am 26.4 28.3 20.5 70 3.9 E 11 20 6 11 1017.1 1015.3 0.0
22/07:30am 25.6 27.4 20.4 73 3.4 ENE 11 15 6 8 1017.0 1015.2 0.0
22/07:00am 25.4 28.4 20.9 76 3.0 ESE 6 9 3 5 1016.9 1015.1 0.0
22/06:30am 23.6 25.8 19.3 77 2.8 ENE 6 7 3 4 1016.7 1014.9 0.0
22/06:00am 23.3 25.2 18.6 75 3.0 E 6 6 3 3 1016.4 1014.6 0.0
22/05:30am 23.2 25.2 17.9 72 3.3 ENE 4 6 2 3 1016.2 1014.4 0.0
22/05:00am 23.5 25.8 17.7 70 3.6 ENE 2 6 1 3 1015.9 1014.2 0.0
22/04:30am 23.4 26.1 17.8 71 3.5 CALM 0 4 0 2 1015.6 1013.9 0.0
22/04:00am 22.0 24.2 16.5 71 3.4 CALM 0 2 0 1 1015.3 1013.6 0.0
22/03:30am 21.7 22.3 15.3 67 3.8 E 6 7 3 4 1014.9 1013.2 0.0
22/03:00am 22.3 23.5 15.9 67 3.9 NE 4 6 2 3 1014.7 1013.0 0.0
22/02:30am 22.2 23.6 14.3 61 4.7 CALM 0 0 0 0 1014.8 1013.1 0.0
22/02:00am 24.1 24.6 13.9 53 6.1 ENE 4 6 2 3 1014.8 1013.1 0.0
22/01:30am 24.3 24.1 13.5 51 6.4 ENE 7 9 4 5 1014.8 1013.1 0.0
22/01:00am 22.4 22.3 13.2 56 5.4 E 6 7 3 4 1014.8 1013.1 0.0
22/12:30am 21.9 22.9 13.3 58 5.0 CALM 0 0 0 0 1014.9 1013.2 0.0
22/12:00am 23.0 23.9 12.9 53 5.9 CALM 0 6 0 3 1015.0 1013.3 0.0
 
Date/Time
EST
Temp
°C
App
Temp
°C
Dew
Point
°C
Rel
Hum
%
Delta-T
°C
Wind Press
QNH
hPa
Press
MSL
hPa
Rain since
9am
mm
Dir  Spd
km/h
Gust
km/h
Spd
kts
Gust
kts
21/11:30pm 22.6 23.0 13.7 57 5.2 WNW 4 6 2 3 1014.4 1012.6 0.0
21/11:00pm 22.6 23.9 14.2 59 5.0 CALM 0 6 0 3 1014.4 1012.6 0.0
21/10:30pm 23.2 24.4 13.9 56 5.5 CALM 0 0 0 0 1014.2 1012.4 0.0
21/10:00pm 24.8 26.2 14.3 52 6.3 CALM 0 0 0 0 1014.2 1012.4 0.0
21/09:30pm 24.9 26.4 14.7 53 6.2 CALM 0 0 0 0 1014.2 1012.4 0.0
21/09:00pm 24.9 25.9 14.4 52 6.3 W 2 6 1 3 1014.0 1012.2 0.0
21/08:30pm 26.6 27.6 13.3 43 7.9 CALM 0 0 0 0 1013.9 1012.1 0.0
21/08:00pm 27.2 28.0 12.4 40 8.7 CALM 0 0 0 0 1013.8 1012.0 0.0
21/07:30pm 28.5 28.5 9.7 31 10.6 CALM 0 0 0 0 1013.7 1011.9 0.0
21/07:00pm 29.1 29.2 10.3 31 10.8 CALM 0 0 0 0 1013.6 1011.8 0.0
21/06:30pm 30.0 30.1 10.0 29 11.4 CALM 0 0 0 0 1013.4 1011.6 0.0
21/06:00pm 31.0 31.3 10.9 29 11.7 CALM 0 0 0 0 1013.2 1011.4 0.0
21/05:30pm 32.1 31.4 7.0 21 13.8 CALM 0 4 0 2 1013.3 1011.5 0.0
21/05:00pm 32.3 31.5 6.5 20 14.1 CALM 0 2 0 1 1013.1 1011.3 0.0
21/04:30pm 32.6 31.5 6.7 20 14.2 SE 2 6 1 3 1013.0 1011.2 0.0
21/04:00pm 33.0 32.0 5.5 18 14.8 CALM 0 6 0 3 1013.0 1011.2 0.0
21/03:30pm 33.2 30.9 5.7 18 14.9 ESE 7 15 4 8 1013.1 1011.3 0.0
21/03:00pm 33.9 33.1 6.3 18 15.2 CALM 0 4 0 2 1013.4 1011.6 0.0
21/02:30pm 33.1 30.8 5.6 18 14.9 SE 7 13 4 7 1013.6 1011.8 0.0
21/02:00pm 32.9 31.1 5.5 18 14.8 E 4 9 2 5 1013.8 1012.0 0.0
21/01:30pm 32.8 30.5 4.6 17 15.0 ENE 6 13 3 7 1014.0 1012.2 0.0
21/01:00pm 33.3 30.6 5.8 18 14.9 ENE 9 19 5 10 1014.5 1012.8 0.0
21/12:30pm 33.3 30.8 5.0 17 15.2 E 7 17 4 9 1014.7 1013.0 0.0
21/12:00pm 31.9 30.1 5.4 19 14.2 ENE 4 11 2 6 1014.9 1013.2 0.0
21/11:30am 31.8 29.0 5.3 19 14.2 ENE 9 13 5 7 1015.1 1013.4 0.0
21/11:00am 31.6 28.8 5.2 19 14.1 ESE 9 15 5 8 1015.4 1013.7 0.0
21/10:30am 32.7 29.9 6.8 20 14.3 E 11 17 6 9 1015.7 1014.0 0.0
21/10:00am 31.1 27.8 6.2 21 13.4 ESE 13 20 7 11 1016.0 1014.3 0.0
21/09:30am 29.6 26.3 6.3 23 12.5 ESE 13 20 7 11 1016.3 1014.5 0.0
21/09:00am 28.6 25.2 6.1 24 12.0 ESE 13 20 7 11 1016.3 1014.5 0.0
21/08:30am 28.3 25.1 7.0 26 11.5 E 13 22 7 12 1016.0 1014.3 0.0
21/08:00am 27.2 24.2 7.6 29 10.6 E 13 20 7 11 1015.8 1014.1 0.0
21/07:30am 25.4 22.5 8.0 33 9.4 E 13 19 7 10 1015.5 1013.8 0.0
21/07:00am 22.9 22.7 10.3 45 7.0 E 2 6 1 3 1015.4 1013.7 0.0
21/06:30am 20.4 20.8 11.1 55 5.2 CALM 0 4 0 2 1015.2 1013.5 0.0
21/06:00am 20.1 18.9 9.4 50 5.8 ESE 6 6 3 3 1014.7 1013.0 0.0
21/05:30am 20.0 19.2 9.6 51 5.6 ESE 4 4 2 2 1014.5 1012.8 0.0
21/05:00am 20.1 18.8 9.9 52 5.5 E 7 9 4 5 1014.3 1012.5 0.0
21/04:30am 20.7 19.6 9.9 50 5.9 ESE 6 7 3 4 1014.2 1012.4 0.0
21/04:00am 22.7 20.7 8.8 41 7.5 ENE 9 15 5 8 1014.1 1012.3 0.0
21/03:30am 21.5 19.8 11.2 52 5.8 NE 11 15 6 8 1014.0 1012.2 0.0
21/03:00am 20.7 21.2 13.9 65 4.0 NW 4 7 2 4 1013.5 1011.7 0.0
21/02:30am 20.9 21.0 13.8 64 4.1 WNW 6 7 3 4 1013.1 1011.3 0.0
21/02:00am 21.1 22.2 13.5 62 4.4 CALM 0 4 0 2 1013.2 1011.4 0.0
21/01:30am 21.4 21.8 13.6 61 4.6 NW 4 6 2 3 1013.0 1011.2 0.0
21/01:00am 21.1 22.3 13.8 63 4.3 CALM 0 0 0 0 1013.0 1011.2 0.0
21/12:30am 21.1 22.2 13.5 62 4.4 CALM 0 2 0 1 1013.0 1011.2 0.0
21/12:00am 21.4 22.5 13.6 61 4.6 CALM 0 2 0 1 1013.2 1011.4 0.0
 
Date/Time
EST
Temp
°C
App
Temp
°C
Dew
Point
°C
Rel
Hum
%
Delta-T
°C
Wind Press
QNH
hPa
Press
MSL
hPa
Rain since
9am
mm
Dir  Spd
km/h
Gust
km/h
Spd
kts
Gust
kts
20/11:30pm 21.8 22.1 13.4 59 4.9 WNW 4 6 2 3 1013.3 1011.5 0.0
20/11:00pm 21.9 22.5 13.0 57 5.2 W 2 6 1 3 1013.2 1011.4 0.0
20/10:30pm 24.1 24.5 12.4 48 6.8 SW 2 6 1 3 1013.0 1011.2 0.0
20/10:00pm 25.5 25.7 12.0 43 7.8 S 2 7 1 4 1012.9 1011.1 0.0
20/09:30pm 25.7 24.7 10.3 38 8.7 SE 6 13 3 7 1012.9 1011.1 0.0
20/09:00pm 25.6 24.3 11.4 41 8.1 SE 9 13 5 7 1012.5 1010.7 0.0
20/08:30pm 25.2 25.2 12.4 45 7.4 SE 4 7 2 4 1012.6 1010.8 0.0
20/08:00pm 25.6 25.8 13.1 46 7.4 ESE 4 15 2 8 1012.1 1010.4 0.0
20/07:30pm 28.1 28.1 9.9 32 10.3 CALM 0 0 0 0 1011.7 1010.0 0.0
20/07:00pm 29.1 29.0 9.3 29 11.2 CALM 0 0 0 0 1011.4 1009.7 0.0
20/06:30pm 30.1 28.9 7.9 25 12.3 SW 4 6 2 3 1011.1 1009.3 0.0
20/06:00pm 31.0 30.0 7.5 23 13.0 SW 2 6 1 3 1010.6 1008.8 0.0
20/05:30pm 32.1 30.3 7.0 21 13.8 WSW 6 9 3 5 1010.4 1008.6 0.0
20/05:00pm 31.9 29.9 6.9 21 13.7 SSW 7 13 4 7 1010.1 1008.3 0.0
20/04:30pm 33.0 31.4 6.3 19 14.6 S 4 7 2 4 1009.7 1007.9 0.0
20/04:00pm 33.3 31.6 5.8 18 15.0 WSW 4 11 2 6 1009.9 1008.1 0.0
20/03:30pm 33.3 31.2 6.6 19 14.7 NW 7 17 4 9 1009.7 1007.9 0.0
20/03:00pm 32.9 31.6 6.2 19 14.6 WNW 2 7 1 4 1009.8 1008.0 0.0
20/02:30pm 33.0 31.0 7.1 20 14.3 WSW 7 20 4 11 1010.1 1008.3 0.0
20/02:00pm 33.2 30.6 4.0 16 15.4 WSW 7 13 4 7 1010.4 1008.6 0.0
20/01:30pm 31.8 30.4 8.7 24 13.0 SSW 6 11 3 6 1010.6 1008.8 0.0
20/01:00pm 31.8 31.4 11.0 28 12.2 SE 4 11 2 6 1011.2 1009.5 0.0
20/12:30pm 30.2 29.6 11.7 32 10.9 S 6 13 3 7 1011.6 1009.9 0.0
20/12:00pm 30.2 29.8 13.0 34 10.3 SE 7 15 4 8 1012.1 1010.4 0.0
20/11:30am 29.4 28.3 11.9 34 10.3 SSE 9 17 5 9 1012.6 1010.8 0.0
20/11:00am 29.1 26.6 11.2 33 10.4 SE 15 20 8 11 1012.8 1011.0 0.0
20/10:30am 28.6 26.3 11.6 34 9.9 ESE 15 24 8 13 1013.0 1011.2 0.0
20/10:00am 26.7 28.2 16.6 54 6.3 SSE 4 11 2 6 1013.3 1011.5 0.0
20/09:30am 24.7 26.0 17.2 63 4.7 SE 6 9 3 5 1013.4 1011.6 0.0
20/09:00am 23.5 26.1 18.4 73 3.2 SSE 2 6 1 3 1013.3 1011.5 1.4
20/08:30am 22.1 25.0 18.3 79 2.4 CALM 0 6 0 3 1013.2 1011.4 1.4
20/08:00am 20.8 23.1 18.6 87 1.4 S 4 7 2 4 1013.1 1011.3 1.4
20/07:30am 19.9 22.1 18.4 91 0.9 SSW 4 9 2 5 1012.9 1011.1 1.4
20/07:00am 19.9 22.6 18.7 93 0.8 SSE 2 6 1 3 1012.7 1010.9 1.4
20/06:30am 19.7 22.5 18.9 95 0.5 SE 2 6 1 3 1012.3 1010.5 1.4
20/06:00am 19.5 22.6 18.7 95 0.5 CALM 0 0 0 0 1011.9 1010.2 1.4
20/05:30am 19.5 22.7 18.8 96 0.4 CALM 0 0 0 0 1011.4 1009.7 1.4
20/05:00am 19.5 22.8 19.0 97 0.3 CALM 0 0 0 0 1011.3 1009.6 1.4
20/04:30am 18.8 21.7 18.3 97 0.3 CALM 0 0 0 0 1011.0 1009.2 1.4
20/04:00am 18.4 21.1 17.8 96 0.4 CALM 0 0 0 0 1010.8 1009.0 1.4
20/03:30am 18.5 21.2 17.7 95 0.5 CALM 0 0 0 0 1010.5 1008.7 1.4
20/03:00am 18.8 21.6 18.0 95 0.5 CALM 0 0 0 0 1010.4 1008.6 1.2
20/02:30am 19.1 22.1 18.4 96 0.4 CALM 0 0 0 0 1010.6 1008.8 1.2
20/02:00am 19.1 22.1 18.4 96 0.4 CALM 0 0 0 0 1010.6 1008.8 1.2
20/01:30am 19.2 22.2 18.4 95 0.5 CALM 0 0 0 0 1010.8 1009.0 1.2
20/01:00am 19.2 22.1 18.2 94 0.6 CALM 0 0 0 0 1011.0 1009.2 1.2
20/12:30am 19.4 21.9 18.2 93 0.8 NE 2 4 1 2 1011.0 1009.2 1.2
20/12:00am 19.4 21.9 18.1 92 0.8 E 2 6 1 3 1011.2 1009.5 1.2
 
Date/Time
EST
Temp
°C
App
Temp
°C
Dew
Point
°C
Rel
Hum
%
Delta-T
°C
Wind Press
QNH
hPa
Press
MSL
hPa
Rain since
9am
mm
Dir  Spd
km/h
Gust
km/h
Spd
kts
Gust
kts
19/11:30pm 19.7 22.2 18.2 91 0.9 SSW 2 6 1 3 1010.9 1009.1 1.2
19/11:00pm 19.9 22.4 18.2 90 1.1 SW 2 6 1 3 1010.8 1009.0 1.2
19/10:30pm 20.1 22.3 18.4 90 1.1 WSW 4 7 2 4 1010.8 1009.0 1.2
19/10:00pm 19.9 22.9 18.4 91 0.9 CALM 0 4 0 2 1010.7 1008.9 1.2
19/09:30pm 20.1 23.1 18.4 90 1.1 CALM 0 4 0 2 1010.7 1008.9 1.2
19/09:00pm 20.1 22.6 18.2 89 1.2 NW 2 6 1 3 1010.7 1008.9 1.2
19/08:30pm 20.0 20.8 17.2 84 1.7 SW 9 17 5 9 1010.5 1008.7 1.0
19/08:00pm 21.9 20.7 17.1 74 3.0 SSW 19 32 10 17 1010.2 1008.4 0.2
19/07:30pm 22.7 23.9 20.0 85 1.8 SSW 13 24 7 13 1009.5 1007.7 0.2
19/07:00pm 22.9 24.5 19.9 83 2.0 S 11 20 6 11 1009.0 1007.2 0.2
19/06:30pm 24.9 24.8 19.9 74 3.3 WSW 20 33 11 18 1008.5 1006.7 0.0
19/06:00pm 28.1 27.5 17.6 53 6.7 WSW 17 32 9 17 1007.2 1005.4 0.0
19/05:30pm 31.8 29.4 14.4 34 10.7 NW 20 28 11 15 1006.1 1004.3 0.0
19/05:00pm 32.2 30.0 14.8 35 10.8 NW 20 32 11 17 1005.6 1003.8 0.0
19/04:30pm 33.6 32.0 15.1 33 11.6 NW 17 24 9 13 1005.7 1003.9 0.0

Other Formats:

Comma delimited format used in spreadsheet applications
http://www.bom.gov.au/fwo/IDQ60801/IDQ60801.94399.axf

JavaScript Object Notation format (JSON) in row-major order
http://www.bom.gov.au/fwo/IDQ60801/IDQ60801.94399.json